createdAt,value
2023-11-20T00:01:59.040Z,1.38
2023-11-20T00:04:26.046Z,1.30
2023-11-20T00:06:52.653Z,1.40
2023-11-20T00:09:20.017Z,1.02
2023-11-20T00:11:46.672Z,1.20
2023-11-20T00:14:14.557Z,1.10
2023-11-20T00:16:41.162Z,1.50
2023-11-20T00:19:11.635Z,0.90
2023-11-20T00:21:41.841Z,1.50
2023-11-20T00:24:10.129Z,1.20
2023-11-20T00:26:37.147Z,1.20
2023-11-20T00:29:05.513Z,1.30
2023-11-20T00:31:32.985Z,1.45
2023-11-20T00:34:00.308Z,1.05
2023-11-20T00:36:27.034Z,1.20
2023-11-20T00:38:53.676Z,1.30
2023-11-20T00:41:20.617Z,1.10
2023-11-20T00:43:47.200Z,1.40
2023-11-20T00:46:16.934Z,1.60
2023-11-20T00:48:45.603Z,1.70
2023-11-20T00:51:12.768Z,1.88
2023-11-20T00:53:40.074Z,1.40
2023-11-20T00:56:06.921Z,1.10
2023-11-20T00:58:33.581Z,1.58
2023-11-20T01:01:00.484Z,1.60
2023-11-20T01:03:27.109Z,1.30
2023-11-20T01:05:53.864Z,1.25
2023-11-20T01:08:20.369Z,1.10
2023-11-20T01:10:46.868Z,1.67
2023-11-20T01:13:13.353Z,1.38
2023-11-20T01:15:39.903Z,1.38
2023-11-20T01:18:06.602Z,1.35
2023-11-20T01:20:34.998Z,1.15
2023-11-20T01:23:01.540Z,1.70
2023-11-20T01:25:28.119Z,1.17
2023-11-20T01:27:54.594Z,1.60
2023-11-20T01:30:21.054Z,1.50
2023-11-20T01:32:47.788Z,1.02
2023-11-20T01:35:14.430Z,1.30
2023-11-20T01:37:40.994Z,1.48
2023-11-20T01:40:08.600Z,1.40
2023-11-20T01:42:35.238Z,1.50
2023-11-20T01:45:01.835Z,1.33
2023-11-20T01:47:28.698Z,1.80
2023-11-20T01:49:55.344Z,1.20
2023-11-20T01:52:25.011Z,1.30
2023-11-20T01:54:53.672Z,2.17
2023-11-20T01:57:20.931Z,1.17
2023-11-20T01:59:47.533Z,1.50
2023-11-20T02:02:14.199Z,1.60
2023-11-20T02:04:42.343Z,1.25
2023-11-20T02:07:09.396Z,1.63
2023-11-20T02:09:36.520Z,1.38
2023-11-20T02:12:03.085Z,1.23
2023-11-20T02:14:29.714Z,1.13
2023-11-20T02:16:56.225Z,1.25
2023-11-20T02:19:22.719Z,1.20
2023-11-20T02:21:49.231Z,1.00
2023-11-20T02:24:15.795Z,1.33
2023-11-20T02:26:51.377Z,1.20
2023-11-20T02:29:33.153Z,1.58
2023-11-20T02:32:00.333Z,1.00
2023-11-20T02:34:26.872Z,1.60
2023-11-20T02:36:53.405Z,1.10
2023-11-20T02:39:19.924Z,1.38
2023-11-20T02:41:46.473Z,1.27
2023-11-20T02:44:13.316Z,1.15
2023-11-20T02:46:39.958Z,1.50
2023-11-20T02:49:06.605Z,1.10
2023-11-20T02:51:33.266Z,1.27
2023-11-20T02:53:59.838Z,1.30
2023-11-20T02:56:26.554Z,1.40
2023-11-20T02:58:53.087Z,1.33
2023-11-20T03:01:19.715Z,1.52
2023-11-20T03:03:46.435Z,1.60
2023-11-20T03:06:13.462Z,1.45
2023-11-20T03:08:40.000Z,1.20
2023-11-20T03:11:07.385Z,1.27
2023-11-20T03:13:34.659Z,1.30
2023-11-20T03:16:01.282Z,1.10
2023-11-20T03:18:27.939Z,1.48
2023-11-20T03:20:54.424Z,1.20
2023-11-20T03:23:20.858Z,1.30
2023-11-20T03:25:47.318Z,1.20
2023-11-20T03:28:16.225Z,1.55
2023-11-20T03:30:42.777Z,1.38
2023-11-20T03:33:09.314Z,1.40
2023-11-20T03:35:35.796Z,1.20
2023-11-20T03:38:02.372Z,1.00
2023-11-20T03:40:29.230Z,1.20
2023-11-20T03:42:55.770Z,1.80
2023-11-20T03:45:22.288Z,1.48
2023-11-20T03:47:48.738Z,1.23
2023-11-20T03:50:15.247Z,1.25
2023-11-20T03:52:41.783Z,1.45
2023-11-20T03:55:08.980Z,1.48
2023-11-20T03:57:35.578Z,1.33
2023-11-20T04:00:02.220Z,1.50
2023-11-20T04:02:28.677Z,1.20
2023-11-20T04:04:55.240Z,1.40
2023-11-20T04:07:22.000Z,1.02
2023-11-20T04:09:48.487Z,1.63
2023-11-20T04:12:14.998Z,1.90
2023-11-20T04:14:41.570Z,1.50
2023-11-20T04:17:08.857Z,1.67
2023-11-20T04:19:35.802Z,1.10
2023-11-20T04:22:02.965Z,1.13
2023-11-20T04:24:30.159Z,0.93
2023-11-20T04:26:56.699Z,1.15
2023-11-20T04:29:23.151Z,1.10
2023-11-20T04:31:49.753Z,1.00
2023-11-20T04:34:16.331Z,1.63
2023-11-20T04:36:42.907Z,1.10
2023-11-20T04:39:09.473Z,1.10
2023-11-20T04:41:35.910Z,1.30
2023-11-20T04:44:02.443Z,1.83
2023-11-20T04:46:29.155Z,1.30
2023-11-20T04:48:56.186Z,0.90
2023-11-20T04:51:23.558Z,1.27
2023-11-20T04:53:50.595Z,1.48
2023-11-20T04:56:17.327Z,1.15
2023-11-20T04:58:47.175Z,1.33
2023-11-20T05:01:14.860Z,1.77
2023-11-20T05:03:41.654Z,1.15
2023-11-20T05:06:08.823Z,1.10
2023-11-20T05:08:35.338Z,1.13
2023-11-20T05:11:01.897Z,1.65
2023-11-20T05:13:28.383Z,0.90
2023-11-20T05:15:54.946Z,1.08
2023-11-20T05:18:21.762Z,1.10
2023-11-20T05:20:48.384Z,1.17
2023-11-20T05:23:15.063Z,1.63
2023-11-20T05:25:41.646Z,1.13
2023-11-20T05:28:08.195Z,1.20
2023-11-20T05:30:34.804Z,0.88
2023-11-20T05:33:02.147Z,1.20
2023-11-20T05:35:28.635Z,1.40
2023-11-20T05:37:55.155Z,1.42
2023-11-20T05:40:22.817Z,1.23
2023-11-20T05:42:49.411Z,1.20
2023-11-20T05:45:15.881Z,1.52
2023-11-20T05:47:42.408Z,1.30
2023-11-20T05:50:09.279Z,1.45
2023-11-20T05:52:36.078Z,1.30
2023-11-20T05:55:03.744Z,1.25
2023-11-20T05:57:31.159Z,1.33
2023-11-20T05:59:57.697Z,1.00
2023-11-20T06:02:24.186Z,1.50
2023-11-20T06:04:50.660Z,1.10
2023-11-20T06:07:17.270Z,1.55
2023-11-20T06:09:44.134Z,1.40
2023-11-20T06:12:10.664Z,2.10
2023-11-20T06:14:37.164Z,1.73
2023-11-20T06:17:04.288Z,1.20
2023-11-20T06:19:30.943Z,1.20
2023-11-20T06:21:57.579Z,1.40
2023-11-20T06:24:24.385Z,1.15
2023-11-20T06:26:50.884Z,1.20
2023-11-20T06:29:17.387Z,0.90
2023-11-20T06:31:43.952Z,1.05
2023-11-20T06:34:10.740Z,0.90
2023-11-20T06:36:39.027Z,1.15
2023-11-20T06:39:07.988Z,1.20
2023-11-20T06:41:35.624Z,0.90
2023-11-20T06:44:02.280Z,1.30
2023-11-20T06:46:28.870Z,0.90
2023-11-20T06:48:55.393Z,1.10
2023-11-20T06:51:21.951Z,1.10
2023-11-20T06:53:49.213Z,1.05
2023-11-20T06:56:20.012Z,1.00
2023-11-20T06:58:47.427Z,0.90
2023-11-20T07:01:14.598Z,1.25
2023-11-20T07:03:45.261Z,1.55
2023-11-20T07:06:20.348Z,1.20
2023-11-20T07:08:48.503Z,0.90
2023-11-20T07:11:15.965Z,1.20
2023-11-20T07:13:42.488Z,1.00
2023-11-20T07:16:10.249Z,0.98
2023-11-20T07:18:36.864Z,1.10
2023-11-20T07:21:03.945Z,0.98
2023-11-20T07:23:30.437Z,0.98
2023-11-20T07:25:56.926Z,0.90
2023-11-20T07:28:23.464Z,1.10
2023-11-20T07:30:49.970Z,0.90
2023-11-20T07:33:17.085Z,1.15
2023-11-20T07:35:43.642Z,0.90
2023-11-20T07:38:10.144Z,1.00
2023-11-20T07:40:37.975Z,0.90
2023-11-20T07:43:04.535Z,1.25
2023-11-20T07:45:31.111Z,1.40
2023-11-20T07:47:57.657Z,1.13
2023-11-20T07:50:24.149Z,1.08
2023-11-20T07:52:50.630Z,0.90
2023-11-20T07:55:17.196Z,1.00
2023-11-20T07:57:44.128Z,0.90
2023-11-20T08:00:14.223Z,1.13
2023-11-20T08:02:40.873Z,0.93
2023-11-20T08:05:10.088Z,1.08
2023-11-20T08:07:37.182Z,1.20
2023-11-20T08:10:06.704Z,1.20
2023-11-20T08:12:34.589Z,1.10
2023-11-20T08:15:01.389Z,0.90
2023-11-20T08:17:27.914Z,1.40
2023-11-20T08:19:54.492Z,1.25
2023-11-20T08:22:21.049Z,1.20
2023-11-20T08:24:47.656Z,1.00
2023-11-20T08:27:14.251Z,1.60
2023-11-20T08:29:40.999Z,2.05
2023-11-20T08:32:07.720Z,1.20
2023-11-20T08:34:35.199Z,0.90
2023-11-20T08:37:02.332Z,1.83
2023-11-20T08:39:33.423Z,1.50
2023-11-20T08:42:03.014Z,1.30
2023-11-20T08:44:29.457Z,1.40
2023-11-20T08:46:56.193Z,1.10
2023-11-20T08:49:22.800Z,1.38
2023-11-20T08:51:56.243Z,1.00
2023-11-20T08:54:29.251Z,1.30
2023-11-20T08:56:55.866Z,1.48
2023-11-20T08:59:22.508Z,0.90
2023-11-20T09:01:49.283Z,1.00
2023-11-20T09:04:16.658Z,1.20
2023-11-20T09:06:44.487Z,2.05
2023-11-20T09:09:12.305Z,1.17
2023-11-20T09:11:39.302Z,1.20
2023-11-20T09:14:05.793Z,1.08
2023-11-20T09:16:32.444Z,1.10
2023-11-20T09:19:00.528Z,1.17
2023-11-20T09:21:27.239Z,0.93
2023-11-20T09:23:53.668Z,1.02
2023-11-20T09:26:20.256Z,1.05
2023-11-20T09:28:48.254Z,1.40
2023-11-20T09:31:19.842Z,1.00
2023-11-20T09:33:47.672Z,1.02
2023-11-20T09:36:14.250Z,1.10
2023-11-20T09:38:41.851Z,1.10
2023-11-20T09:41:08.621Z,1.10
2023-11-20T09:43:36.250Z,0.90
2023-11-20T09:46:09.047Z,1.10
2023-11-20T09:48:39.136Z,0.82
2023-11-20T09:51:13.351Z,1.30
2023-11-20T09:53:42.516Z,1.27
2023-11-20T09:56:12.465Z,0.80
2023-11-20T09:58:41.989Z,1.17
2023-11-20T10:01:15.061Z,1.08
2023-11-20T10:03:43.616Z,1.10
2023-11-20T10:06:14.239Z,1.20
2023-11-20T10:08:42.932Z,0.80
2023-11-20T10:11:13.093Z,0.90
2023-11-20T10:13:40.876Z,1.08
2023-11-20T10:16:21.375Z,1.00
2023-11-20T10:18:48.349Z,0.80
2023-11-20T10:21:15.313Z,1.15
2023-11-20T10:23:42.681Z,1.20
2023-11-20T10:26:09.621Z,1.15
2023-11-20T10:28:42.698Z,1.13
2023-11-20T10:31:10.373Z,1.02
2023-11-20T10:33:37.479Z,1.35
2023-11-20T10:36:12.284Z,1.00
2023-11-20T10:38:39.186Z,1.00
2023-11-20T10:41:10.128Z,1.05
2023-11-20T10:43:37.957Z,0.73
2023-11-20T10:46:06.519Z,1.20
2023-11-20T10:48:40.740Z,1.00
2023-11-20T10:51:09.527Z,1.02
2023-11-20T10:53:40.762Z,0.70
2023-11-20T10:56:08.417Z,0.90
2023-11-20T10:58:35.675Z,2.08
2023-11-20T11:01:03.571Z,0.90
2023-11-20T11:03:34.109Z,0.65
2023-11-20T11:06:04.394Z,1.15
2023-11-20T11:08:34.041Z,0.75
2023-11-20T11:11:04.725Z,0.60
2023-11-20T11:13:35.135Z,0.63
2023-11-20T11:16:06.844Z,0.82
2023-11-20T11:18:35.716Z,0.68
2023-11-20T11:21:05.314Z,0.50
2023-11-20T11:23:51.123Z,0.50
2023-11-20T11:26:49.629Z,0.60
2023-11-20T11:29:21.307Z,0.68
2023-11-20T11:32:08.894Z,0.68
2023-11-20T11:35:04.593Z,0.60
2023-11-20T11:38:09.885Z,0.60
2023-11-20T11:40:42.550Z,0.80
2023-11-20T11:43:28.592Z,0.60
2023-11-20T11:45:59.338Z,0.70
2023-11-20T11:48:25.879Z,1.00
2023-11-20T11:50:52.991Z,1.05
2023-11-20T11:53:19.556Z,1.05
2023-11-20T11:55:46.680Z,0.73
2023-11-20T11:58:15.586Z,1.52
2023-11-20T12:00:42.604Z,0.80
2023-11-20T12:03:15.826Z,0.85
2023-11-20T12:06:00.662Z,0.45
2023-11-20T12:08:34.577Z,0.82
2023-11-20T12:11:01.282Z,0.77
2023-11-20T12:13:27.997Z,0.80
2023-11-20T12:16:04.473Z,0.77
2023-11-20T12:18:33.943Z,0.70
2023-11-20T12:21:05.241Z,1.13
2023-11-20T12:23:39.838Z,0.80
2023-11-20T12:26:11.497Z,1.08
2023-11-20T12:28:39.481Z,1.17
2023-11-20T12:31:15.495Z,1.10
2023-11-20T12:33:46.898Z,0.90
2023-11-20T12:36:14.054Z,1.10
2023-11-20T12:38:43.174Z,0.90
2023-11-20T12:41:10.899Z,1.05
2023-11-20T12:43:38.542Z,1.00
2023-11-20T12:46:07.478Z,1.05
2023-11-20T12:48:36.982Z,0.73
2023-11-20T12:51:04.774Z,1.40
2023-11-20T12:53:32.908Z,0.77
2023-11-20T12:56:01.918Z,0.85
2023-11-20T12:58:28.641Z,1.27
2023-11-20T13:00:55.651Z,0.93
2023-11-20T13:03:23.184Z,0.60
2023-11-20T13:05:52.410Z,0.60
2023-11-20T13:08:24.455Z,0.65
2023-11-20T13:10:56.301Z,0.70
2023-11-20T13:13:26.893Z,0.57
2023-11-20T13:15:59.176Z,0.40
2023-11-20T13:18:28.507Z,0.60
2023-11-20T13:20:56.135Z,0.80
2023-11-20T13:23:30.425Z,0.88
2023-11-20T13:26:10.509Z,0.98
2023-11-20T13:28:37.984Z,1.00
2023-11-20T13:31:09.990Z,0.70
2023-11-20T13:33:44.318Z,0.70
2023-11-20T13:36:11.970Z,0.95
2023-11-20T13:38:39.247Z,0.90
2023-11-20T13:41:09.327Z,0.70
2023-11-20T13:43:36.023Z,0.90
2023-11-20T13:46:02.873Z,0.90
2023-11-20T13:48:35.007Z,1.08
2023-11-20T13:51:06.578Z,0.60
2023-11-20T13:53:33.952Z,1.05
2023-11-20T13:56:00.505Z,1.00
2023-11-20T13:58:28.053Z,1.20
2023-11-20T14:01:00.010Z,0.70
2023-11-20T14:03:28.605Z,0.70
2023-11-20T14:05:55.500Z,0.88
2023-11-20T14:08:22.378Z,0.70
2023-11-20T14:11:01.332Z,0.73
2023-11-20T14:13:31.093Z,0.90
2023-11-20T14:15:58.753Z,0.80
2023-11-20T14:18:29.511Z,0.70
2023-11-20T14:20:57.257Z,0.63
2023-11-20T14:23:24.752Z,0.80
2023-11-20T14:26:07.211Z,0.85
2023-11-20T14:28:38.532Z,0.60
2023-11-20T14:31:06.000Z,0.80
2023-11-20T14:33:32.800Z,0.95
2023-11-20T14:36:00.377Z,0.70
2023-11-20T14:38:26.933Z,0.77
2023-11-20T14:40:53.414Z,0.98
2023-11-20T14:43:19.982Z,0.70
2023-11-20T14:45:46.567Z,0.70
2023-11-20T14:48:13.138Z,0.60
2023-11-20T14:50:39.602Z,0.70
2023-11-20T14:53:10.205Z,0.60
2023-11-20T14:55:36.827Z,0.93
2023-11-20T14:58:03.582Z,1.02
2023-11-20T15:00:30.201Z,0.90
2023-11-20T15:02:58.680Z,1.00
2023-11-20T15:05:27.209Z,0.80
2023-11-20T15:07:53.892Z,0.60
2023-11-20T15:10:20.580Z,0.60
2023-11-20T15:12:48.132Z,0.90
2023-11-20T15:15:16.341Z,0.90
2023-11-20T15:17:45.878Z,0.75
2023-11-20T15:20:23.774Z,0.70
2023-11-20T15:22:52.177Z,1.10
2023-11-20T15:25:18.996Z,0.82
2023-11-20T15:27:46.054Z,1.02
2023-11-20T15:30:18.802Z,0.70
2023-11-20T15:32:46.856Z,1.05
2023-11-20T15:35:13.676Z,0.68
2023-11-20T15:37:40.196Z,0.82
2023-11-20T15:40:09.740Z,1.00
2023-11-20T15:42:37.383Z,0.70
2023-11-20T15:45:05.728Z,0.70
2023-11-20T15:47:34.483Z,0.77
2023-11-20T15:50:01.695Z,0.75
2023-11-20T15:52:28.624Z,0.82
2023-11-20T15:54:57.040Z,0.70
2023-11-20T15:57:23.589Z,0.55
2023-11-20T15:59:50.081Z,0.82
2023-11-20T16:02:16.943Z,0.88
2023-11-20T16:04:43.461Z,0.60
2023-11-20T16:07:09.979Z,0.90
2023-11-20T16:09:38.423Z,0.80
2023-11-20T16:12:05.654Z,0.98
2023-11-20T16:14:32.256Z,0.80
2023-11-20T16:16:58.902Z,1.25
2023-11-20T16:19:25.728Z,0.70
2023-11-20T16:21:52.488Z,0.75
2023-11-20T16:24:19.620Z,0.77
2023-11-20T16:26:46.327Z,2.85
2023-11-20T16:29:13.750Z,2.95
2023-11-20T16:31:42.646Z,1.10
2023-11-20T16:34:09.367Z,1.23
2023-11-20T16:36:35.908Z,1.30
2023-11-20T16:39:02.374Z,1.33
2023-11-20T16:41:28.824Z,1.10
2023-11-20T16:43:55.347Z,1.20
2023-11-20T16:46:24.158Z,1.35
2023-11-20T16:48:51.705Z,1.33
2023-11-20T16:51:21.371Z,1.40
2023-11-20T16:53:48.563Z,1.42
2023-11-20T16:56:15.556Z,1.30
2023-11-20T16:58:42.166Z,1.33
2023-11-20T17:01:10.408Z,1.17
2023-11-20T17:03:37.934Z,1.15
2023-11-20T17:06:07.663Z,1.63
2023-11-20T17:08:37.259Z,1.27
2023-11-20T17:11:04.208Z,1.40
2023-11-20T17:13:31.377Z,1.20
2023-11-20T17:15:58.294Z,1.42
2023-11-20T17:18:25.896Z,1.83
2023-11-20T17:20:52.873Z,1.40
2023-11-20T17:23:19.465Z,1.75
2023-11-20T17:25:45.986Z,1.90
2023-11-20T17:28:12.785Z,2.22
2023-11-20T17:30:40.813Z,1.42
2023-11-20T17:33:07.499Z,1.88
2023-11-20T17:35:33.997Z,3.40
2023-11-20T17:38:00.525Z,1.92
2023-11-20T17:40:27.081Z,2.08
2023-11-20T17:42:53.690Z,2.20
2023-11-20T17:45:20.916Z,2.80
2023-11-20T17:47:47.491Z,2.80
2023-11-20T17:50:14.160Z,1.55
2023-11-20T17:52:40.644Z,2.33
2023-11-20T17:55:10.168Z,1.77
2023-11-20T17:57:37.333Z,2.25
2023-11-20T18:00:12.004Z,2.13
2023-11-20T18:02:38.940Z,1.90
2023-11-20T18:05:08.741Z,1.60
2023-11-20T18:07:35.688Z,1.77
2023-11-20T18:10:02.716Z,1.40
2023-11-20T18:12:29.563Z,1.80
2023-11-20T18:14:57.240Z,1.50
2023-11-20T18:17:25.342Z,1.60
2023-11-20T18:19:52.017Z,2.00
2023-11-20T18:22:19.164Z,1.50
2023-11-20T18:24:45.846Z,1.88
2023-11-20T18:27:13.506Z,1.63
2023-11-20T18:29:40.220Z,1.60
2023-11-20T18:32:07.171Z,1.50
2023-11-20T18:34:33.794Z,2.47
2023-11-20T18:37:02.101Z,4.22
2023-11-20T18:39:30.329Z,1.80
2023-11-20T18:41:57.138Z,1.10
2023-11-20T18:44:23.661Z,1.00
2023-11-20T18:46:52.020Z,0.90
2023-11-20T18:49:18.894Z,1.15
2023-11-20T18:51:45.523Z,1.15
2023-11-20T18:54:12.784Z,0.98
2023-11-20T18:56:39.621Z,1.00
2023-11-20T18:59:06.181Z,1.08
2023-11-20T19:01:32.770Z,0.80
2023-11-20T19:04:01.826Z,3.15
2023-11-20T19:06:28.564Z,1.80
2023-11-20T19:08:56.178Z,1.27
2023-11-20T19:11:23.057Z,1.17
2023-11-20T19:13:49.639Z,1.00
2023-11-20T19:16:16.259Z,1.13
2023-11-20T19:18:42.806Z,1.30
2023-11-20T19:21:09.325Z,1.60
2023-11-20T19:23:36.935Z,1.13
2023-11-20T19:26:03.437Z,1.10
2023-11-20T19:28:30.001Z,0.77
2023-11-20T19:30:56.532Z,0.90
2023-11-20T19:33:23.027Z,0.82
2023-11-20T19:35:49.653Z,0.80
2023-11-20T19:38:16.246Z,0.82
2023-11-20T19:40:42.907Z,1.00
2023-11-20T19:43:09.483Z,0.80
2023-11-20T19:45:36.167Z,1.17
2023-11-20T19:48:02.701Z,0.88
2023-11-20T19:50:29.197Z,0.90
2023-11-20T19:52:55.688Z,0.90
2023-11-20T19:55:22.199Z,1.02
2023-11-20T19:57:48.716Z,0.90
2023-11-20T20:00:15.755Z,1.10
2023-11-20T20:02:44.909Z,1.35
2023-11-20T20:05:16.168Z,1.08
2023-11-20T20:07:42.717Z,1.10
2023-11-20T20:10:09.540Z,0.82
2023-11-20T20:12:36.646Z,0.88
2023-11-20T20:15:04.391Z,1.17
2023-11-20T20:17:31.000Z,0.90
2023-11-20T20:19:57.562Z,1.10
2023-11-20T20:22:25.194Z,0.70
2023-11-20T20:24:52.343Z,1.10
2023-11-20T20:27:19.219Z,0.90
2023-11-20T20:29:46.551Z,1.00
2023-11-20T20:32:14.472Z,0.90
2023-11-20T20:34:43.230Z,0.90
2023-11-20T20:39:41.264Z,1.02
2023-11-20T20:42:09.294Z,1.02
2023-11-20T20:44:39.805Z,0.90
2023-11-20T20:47:06.708Z,1.02
2023-11-20T20:49:33.440Z,0.90
2023-11-20T20:52:00.882Z,0.80
2023-11-20T20:54:27.493Z,0.70
2023-11-20T20:56:53.949Z,0.60
2023-11-20T20:59:20.542Z,0.55
2023-11-20T21:01:47.962Z,0.50
2023-11-20T21:04:17.638Z,0.50
2023-11-20T21:06:44.471Z,0.65
2023-11-20T21:09:11.116Z,0.70
2023-11-20T21:11:37.919Z,0.55
2023-11-20T21:14:04.592Z,0.50
2023-11-20T21:16:31.326Z,0.50
2023-11-20T21:18:58.128Z,0.77
2023-11-20T21:21:24.719Z,0.70
2023-11-20T21:23:51.879Z,0.47
2023-11-20T21:26:18.372Z,0.50
2023-11-20T21:28:45.159Z,0.70
2023-11-20T21:31:13.476Z,0.73
2023-11-20T21:33:40.142Z,0.70
2023-11-20T21:36:09.848Z,0.50
2023-11-20T21:38:38.438Z,0.52
2023-11-20T21:41:06.797Z,0.55
2023-11-20T21:43:33.391Z,0.63
2023-11-20T21:46:00.293Z,0.50
2023-11-20T21:48:26.867Z,0.60
2023-11-20T21:50:54.257Z,0.52
2023-11-20T21:53:20.776Z,0.63
2023-11-20T21:55:47.359Z,0.57
2023-11-20T21:58:14.154Z,0.80
2023-11-20T22:00:40.724Z,0.57
2023-11-20T22:03:07.853Z,0.60
2023-11-20T22:05:34.511Z,0.55
2023-11-20T22:08:01.159Z,0.50
2023-11-20T22:10:27.660Z,0.80
2023-11-20T22:12:54.215Z,0.60
2023-11-20T22:15:20.749Z,0.43
2023-11-20T22:17:47.285Z,0.50
2023-11-20T22:20:14.045Z,0.50
2023-11-20T22:22:41.750Z,0.52
2023-11-20T22:25:08.993Z,0.70
2023-11-20T22:27:37.135Z,0.40
2023-11-20T22:30:05.920Z,0.50
2023-11-20T22:32:33.192Z,0.63
2023-11-20T22:35:10.677Z,0.70
2023-11-20T22:37:41.042Z,0.50
2023-11-20T22:40:10.122Z,0.40
2023-11-20T22:42:38.287Z,0.47
2023-11-20T22:45:05.459Z,0.60
2023-11-20T22:47:31.978Z,0.70
2023-11-20T22:49:58.439Z,0.60
2023-11-20T22:52:24.941Z,0.80
2023-11-20T22:54:51.685Z,0.90
2023-11-20T22:57:18.358Z,0.70
2023-11-20T22:59:44.818Z,0.70
2023-11-20T23:02:12.258Z,0.70
2023-11-20T23:04:38.960Z,0.90
2023-11-20T23:07:06.661Z,0.70
2023-11-20T23:09:33.791Z,0.63
2023-11-20T23:12:00.749Z,0.63
2023-11-20T23:14:27.428Z,0.88
2023-11-20T23:16:55.105Z,0.70
2023-11-20T23:19:22.617Z,0.80
2023-11-20T23:21:49.212Z,1.00
2023-11-20T23:24:15.774Z,0.80
2023-11-20T23:26:42.254Z,0.70
2023-11-20T23:29:09.064Z,0.90
2023-11-20T23:31:39.074Z,0.82
2023-11-20T23:34:08.755Z,0.55
2023-11-20T23:36:35.243Z,0.57
2023-11-20T23:39:01.737Z,0.80
2023-11-20T23:41:28.283Z,0.80
2023-11-20T23:43:55.127Z,0.80
2023-11-20T23:46:22.468Z,0.73
2023-11-20T23:48:51.786Z,0.80
2023-11-20T23:51:18.884Z,0.52
2023-11-20T23:53:46.360Z,0.90
2023-11-20T23:56:14.144Z,0.80
2023-11-20T23:58:40.680Z,0.80
